createdAt,value
2022-11-09T00:01:50.104Z,100937.03
2022-11-09T00:06:53.494Z,100946.84
2022-11-09T00:11:56.286Z,100950.34
2022-11-09T00:16:59.407Z,100925.16
2022-11-09T00:22:02.195Z,100959.34
2022-11-09T00:27:04.894Z,100912.41
2022-11-09T00:32:07.721Z,100949.84
2022-11-09T00:37:10.507Z,100967.00
2022-11-09T00:42:14.345Z,100969.50
2022-11-09T00:47:17.011Z,100967.75
2022-11-09T00:52:19.713Z,100968.63
2022-11-09T00:57:22.521Z,100979.13
2022-11-09T01:02:25.420Z,101000.78
2022-11-09T01:07:28.095Z,100984.00
2022-11-09T01:12:30.832Z,101005.91
2022-11-09T01:17:33.728Z,101000.00
2022-11-09T01:22:36.529Z,101009.66
2022-11-09T01:27:39.391Z,101010.91
2022-11-09T01:32:42.111Z,101019.69
2022-11-09T01:37:44.898Z,101023.69
2022-11-09T01:42:47.592Z,101031.22
2022-11-09T01:48:07.599Z,101039.22
2022-11-09T01:53:15.380Z,101044.34
2022-11-09T01:58:22.574Z,101050.00
2022-11-09T02:03:33.738Z,101043.75
2022-11-09T02:08:36.424Z,101055.06
2022-11-09T02:13:42.113Z,101063.56
2022-11-09T02:18:58.587Z,101068.22
2022-11-09T02:24:01.809Z,101062.84
2022-11-09T02:29:08.280Z,101071.22
2022-11-09T02:34:20.208Z,101019.94
2022-11-09T02:39:26.275Z,101075.00
2022-11-09T02:44:31.046Z,101079.88
2022-11-09T02:49:33.894Z,101082.72
2022-11-09T02:54:36.743Z,101063.25
2022-11-09T02:59:40.540Z,101090.31
2022-11-09T03:04:43.278Z,101085.03
2022-11-09T03:09:46.860Z,101095.34
2022-11-09T03:14:49.598Z,101094.72
2022-11-09T03:19:52.858Z,101100.97
2022-11-09T03:24:56.257Z,101102.50
2022-11-09T03:29:59.988Z,101102.38
2022-11-09T03:35:02.871Z,101090.97
2022-11-09T03:40:06.561Z,101115.91
2022-11-09T03:45:09.980Z,101109.88
2022-11-09T03:50:13.952Z,101119.81
2022-11-09T03:55:16.718Z,101124.47
2022-11-09T04:00:21.583Z,101126.97
2022-11-09T04:05:25.759Z,101126.72
2022-11-09T04:10:28.502Z,101117.69
2022-11-09T04:15:31.192Z,101124.22
2022-11-09T04:20:33.978Z,101126.50
2022-11-09T04:25:38.195Z,101131.13
2022-11-09T04:30:43.479Z,101136.69
2022-11-09T04:35:46.243Z,101126.78
2022-11-09T04:40:48.938Z,101145.34
2022-11-09T04:45:51.635Z,101140.44
2022-11-09T04:51:00.060Z,101153.34
2022-11-09T04:56:03.772Z,101159.38
2022-11-09T05:01:09.095Z,101152.59
2022-11-09T05:06:30.253Z,101156.69
2022-11-09T05:11:34.039Z,101167.09
2022-11-09T05:16:36.818Z,101165.34
2022-11-09T05:21:39.820Z,101160.38
2022-11-09T05:26:42.845Z,101153.59
2022-11-09T05:31:51.990Z,101170.81
2022-11-09T05:36:58.184Z,101141.19
2022-11-09T05:42:05.089Z,101163.94
2022-11-09T05:47:07.811Z,101174.22
2022-11-09T05:52:10.505Z,101149.25
2022-11-09T05:57:13.152Z,101168.84
2022-11-09T06:02:15.941Z,101169.94
2022-11-09T06:07:18.698Z,101167.88
2022-11-09T06:12:21.458Z,101171.03
2022-11-09T06:17:24.144Z,101181.22
2022-11-09T06:22:26.792Z,101155.88
2022-11-09T06:27:29.499Z,101176.59
2022-11-09T06:32:32.235Z,101172.66
2022-11-09T06:37:34.994Z,101175.41
2022-11-09T06:42:37.719Z,101175.03
2022-11-09T06:47:40.383Z,101172.03
2022-11-09T06:52:43.132Z,101180.47
2022-11-09T06:57:45.808Z,101173.97
2022-11-09T07:02:48.529Z,101169.34
2022-11-09T07:07:51.357Z,101145.13
2022-11-09T07:12:54.092Z,101185.00
2022-11-09T07:18:01.406Z,101183.59
2022-11-09T07:23:04.146Z,101187.78
2022-11-09T07:28:09.307Z,101192.81
2022-11-09T07:33:18.635Z,101195.56
2022-11-09T07:38:21.288Z,101200.31
2022-11-09T07:43:24.012Z,101206.84
2022-11-09T07:48:28.179Z,101213.78
2022-11-09T07:53:30.974Z,101202.84
2022-11-09T07:58:34.694Z,101214.41
2022-11-09T08:03:37.513Z,101223.66
2022-11-09T08:08:40.121Z,101226.94
2022-11-09T08:13:42.911Z,101234.47
2022-11-09T08:18:45.674Z,101230.44
2022-11-09T08:23:48.496Z,101208.38
2022-11-09T08:28:51.381Z,101238.09
2022-11-09T08:33:54.279Z,101237.13
2022-11-09T08:38:59.521Z,101230.97
2022-11-09T08:44:02.216Z,101243.13
2022-11-09T08:49:04.780Z,101247.28
2022-11-09T08:54:07.487Z,101233.97
2022-11-09T08:59:10.237Z,101254.03
2022-11-09T09:04:13.020Z,101244.47
2022-11-09T09:09:15.816Z,101247.34
2022-11-09T09:14:18.594Z,101261.69
2022-11-09T09:19:21.630Z,101253.00
2022-11-09T09:24:24.381Z,101249.50
2022-11-09T09:29:27.126Z,101270.09
2022-11-09T09:34:29.787Z,101278.25
2022-11-09T09:39:32.476Z,101264.53
2022-11-09T09:44:41.447Z,101263.28
2022-11-09T09:49:51.082Z,101274.59
2022-11-09T09:54:56.579Z,101278.72
2022-11-09T10:00:01.907Z,101277.81
2022-11-09T10:05:16.383Z,101282.72
2022-11-09T10:10:44.747Z,101288.88
2022-11-09T10:16:02.731Z,101291.22
2022-11-09T10:21:24.134Z,101284.19
2022-11-09T10:26:54.200Z,101292.59
2022-11-09T10:32:06.187Z,101300.88
2022-11-09T10:37:29.326Z,101298.09
2022-11-09T10:42:32.061Z,101305.91
2022-11-09T10:47:53.300Z,101306.41
2022-11-09T10:53:18.926Z,101310.44
2022-11-09T10:58:50.116Z,101315.16
2022-11-09T11:04:22.874Z,101308.88
2022-11-09T11:09:44.675Z,101311.38
2022-11-09T11:15:24.058Z,101318.91
2022-11-09T11:20:45.455Z,101322.16
2022-11-09T11:26:23.940Z,101327.06
2022-11-09T11:31:45.285Z,101333.19
2022-11-09T11:37:10.433Z,101339.06
2022-11-09T11:42:56.580Z,101328.91
2022-11-09T11:48:59.284Z,101339.22
2022-11-09T11:54:41.292Z,101344.88
2022-11-09T12:00:15.418Z,101356.78
2022-11-09T12:05:36.315Z,101362.16
2022-11-09T12:11:12.956Z,101353.97
2022-11-09T12:17:00.250Z,101360.63
2022-11-09T12:23:02.607Z,101360.75
2022-11-09T12:28:48.761Z,101361.00
2022-11-09T12:34:15.770Z,101367.81
2022-11-09T12:39:47.325Z,101365.00
2022-11-09T12:45:35.046Z,101363.47
2022-11-09T12:50:56.562Z,101372.53
2022-11-09T12:56:18.916Z,101378.19
2022-11-09T13:01:40.213Z,101377.56
2022-11-09T13:07:04.005Z,101381.06
2022-11-09T13:12:38.315Z,101365.50
2022-11-09T13:18:05.489Z,101382.84
2022-11-09T13:23:59.211Z,101378.31
2022-11-09T13:29:41.971Z,101372.53
2022-11-09T13:35:04.913Z,101365.97
2022-11-09T13:40:32.221Z,101376.75
2022-11-09T13:46:05.390Z,101355.16
2022-11-09T13:51:46.587Z,101374.19
2022-11-09T13:57:07.766Z,101368.41
2022-11-09T14:02:36.679Z,101367.28
2022-11-09T14:08:02.202Z,101367.66
2022-11-09T14:13:23.320Z,101363.53
2022-11-09T14:18:55.074Z,101367.81
2022-11-09T14:24:22.386Z,101366.16
2022-11-09T14:29:58.092Z,101349.91
2022-11-09T14:35:26.933Z,101357.25
2022-11-09T14:40:49.320Z,101362.66
2022-11-09T14:46:19.744Z,101367.19
2022-11-09T14:51:41.153Z,101365.81
2022-11-09T14:57:02.266Z,101370.09
2022-11-09T15:02:24.303Z,101377.88
2022-11-09T15:07:47.460Z,101377.25
2022-11-09T15:13:08.792Z,101373.84
2022-11-09T15:18:34.568Z,101383.16
2022-11-09T15:24:11.309Z,101383.16
2022-11-09T15:29:32.372Z,101388.19
2022-11-09T15:34:56.346Z,101342.38
2022-11-09T15:40:23.257Z,101353.88
2022-11-09T15:45:44.622Z,101387.41
2022-11-09T15:51:05.807Z,101394.22
2022-11-09T15:56:26.856Z,101389.66
2022-11-09T16:01:48.268Z,101390.78
2022-11-09T16:07:11.801Z,101394.63
2022-11-09T16:12:33.273Z,101398.63
2022-11-09T16:17:54.616Z,101404.41
2022-11-09T16:23:15.871Z,101397.00
2022-11-09T16:28:43.659Z,101416.25
2022-11-09T16:34:04.860Z,101412.50
2022-11-09T16:39:26.414Z,101413.13
2022-11-09T16:44:48.740Z,101408.09
2022-11-09T16:50:10.324Z,101403.97
2022-11-09T16:55:31.572Z,101414.78
2022-11-09T17:01:11.335Z,101419.69
2022-11-09T17:06:34.441Z,101417.81
2022-11-09T17:11:56.004Z,101420.16
2022-11-09T17:17:22.480Z,101415.41
2022-11-09T17:22:46.276Z,101417.03
2022-11-09T17:28:07.774Z,101424.22
2022-11-09T17:33:28.988Z,101425.34
2022-11-09T17:38:50.312Z,101416.31
2022-11-09T17:44:11.674Z,101418.84
2022-11-09T17:49:32.985Z,101421.81
2022-11-09T17:54:54.124Z,101413.28
2022-11-09T18:00:15.667Z,101409.84
2022-11-09T18:05:41.175Z,101416.78
2022-11-09T18:11:02.513Z,101410.34
2022-11-09T18:16:23.868Z,101410.22
2022-11-09T18:21:47.832Z,101423.53
2022-11-09T18:27:08.829Z,101412.78
2022-11-09T18:32:30.623Z,101419.78
2022-11-09T18:37:51.617Z,101413.78
2022-11-09T18:43:12.809Z,101413.03
2022-11-09T18:48:34.455Z,101413.56
2022-11-09T18:53:55.668Z,101407.53
2022-11-09T18:59:17.275Z,101410.03
2022-11-09T19:04:38.698Z,101406.78
2022-11-09T19:09:59.803Z,101410.28
2022-11-09T19:15:20.811Z,101408.25
2022-11-09T19:20:41.981Z,101407.53
2022-11-09T19:26:03.407Z,101409.66
2022-11-09T19:31:25.158Z,101403.00
2022-11-09T19:36:46.534Z,101398.94
2022-11-09T19:42:07.622Z,101400.25
2022-11-09T19:47:28.699Z,101398.59
2022-11-09T19:52:49.861Z,101412.06
2022-11-09T19:58:11.695Z,101421.81
2022-11-09T20:03:32.832Z,101406.03
2022-11-09T20:08:54.231Z,101417.63
2022-11-09T20:14:15.683Z,101410.19
2022-11-09T20:19:37.234Z,101412.72
2022-11-09T20:24:58.277Z,101414.09
2022-11-09T20:30:20.041Z,101410.78
2022-11-09T20:35:46.600Z,101370.44
2022-11-09T20:41:11.049Z,101403.88
2022-11-09T20:46:36.233Z,101403.00
2022-11-09T20:51:59.414Z,101403.25
2022-11-09T20:57:20.499Z,101401.25
2022-11-09T21:02:43.524Z,101391.81
2022-11-09T21:08:04.706Z,101403.75
2022-11-09T21:13:26.044Z,101399.47
2022-11-09T21:18:47.285Z,101397.97
2022-11-09T21:24:28.376Z,101392.97
2022-11-09T21:29:52.370Z,101389.59
2022-11-09T21:35:13.490Z,101391.94
2022-11-09T21:40:34.516Z,101383.56
2022-11-09T21:45:56.388Z,101378.53
2022-11-09T21:51:17.618Z,101381.19
2022-11-09T21:56:38.816Z,101380.28
2022-11-09T22:01:59.709Z,101374.66
2022-11-09T22:07:20.939Z,101379.59
2022-11-09T22:13:00.548Z,101382.84
2022-11-09T22:18:40.345Z,101390.50
2022-11-09T22:24:02.148Z,101380.56
2022-11-09T22:29:23.135Z,101395.00
2022-11-09T22:34:45.131Z,101387.06
2022-11-09T22:40:06.897Z,101386.06
2022-11-09T22:45:27.830Z,101389.53
2022-11-09T22:50:49.275Z,101375.72
2022-11-09T22:56:11.734Z,101390.16
2022-11-09T23:01:32.978Z,101391.50
2022-11-09T23:06:54.460Z,101382.56
2022-11-09T23:12:16.037Z,101381.22
2022-11-09T23:17:55.381Z,101377.84
2022-11-09T23:23:16.571Z,101384.75
2022-11-09T23:28:37.908Z,101375.81
2022-11-09T23:33:59.141Z,101372.06
2022-11-09T23:39:20.313Z,101378.97
2022-11-09T23:44:41.667Z,101381.75
2022-11-09T23:50:02.590Z,101371.59
2022-11-09T23:55:23.623Z,101374.91
